aviador You're here:

KILM Decoded Metar

WILMINGTON in NC, USA
Report Time2017-11-21 05:53:00
UTC Time2017-11-21 06:16:38
Flight Rules vfr VFR
WindCalm
Visibility9999 m
Phenomena:N/A
Clouds:N/A
Expected CloudBase > 400 ft AGL from Temp-Dew spread
CeilingNone
Temp03°C (ISA -12)
Dew Point02°C (93% RH)
AAT1.3°C
QNH1025 hPa
Density Alt-1,732 ft
Elevation30 ft
Report Wrong Elevation
Raw Report
METAR KILM 210553Z AUTO 00000KT 10SM CLR 03/02 A3026 RMK AO2 SLP246
T00280017 10061 20028 58003=

Extra information for KILM:More info

Metar Taf Metar & Taf Last 4 Metars F.Rules Stats Wind Profile Meteogram Temp Stats Airport Information Weather charts Add Link Nearby VenuesMetar ALERT Operation Metar Decoded Social comments

AIRNAV info for KILM